createdAt,value
2017-09-21T00:01:07.698Z,101042.56
2017-09-21T00:03:35.125Z,101042.19
2017-09-21T00:06:02.619Z,101042.55
2017-09-21T00:08:30.065Z,101045.47
2017-09-21T00:10:57.521Z,101048.28
2017-09-21T00:13:24.966Z,101043.94
2017-09-21T00:15:52.436Z,101047.48
2017-09-21T00:18:20.074Z,101043.52
2017-09-21T00:20:47.600Z,101040.86
2017-09-21T00:23:15.037Z,101037.84
2017-09-21T00:25:42.469Z,101036.48
2017-09-21T00:28:09.940Z,101027.36
2017-09-21T00:30:37.886Z,101032.55
2017-09-21T00:33:05.345Z,101023.29
2017-09-21T00:35:32.831Z,101035.66
2017-09-21T00:38:00.297Z,101034.01
2017-09-21T00:40:27.737Z,101039.72
2017-09-21T00:42:55.239Z,101044.50
2017-09-21T00:45:22.679Z,101035.30
2017-09-21T00:47:50.148Z,101036.55
2017-09-21T00:50:17.577Z,101032.19
2017-09-21T00:52:45.039Z,101031.27
2017-09-21T00:55:12.480Z,101032.52
2017-09-21T00:57:39.947Z,101033.48
2017-09-21T01:00:07.402Z,101032.61
2017-09-21T01:02:34.856Z,101035.73
2017-09-21T01:05:02.324Z,101036.09
2017-09-21T01:07:29.893Z,101028.62
2017-09-21T01:09:57.392Z,101034.41
2017-09-21T01:12:24.873Z,101038.34
2017-09-21T01:14:52.352Z,101035.34
2017-09-21T01:17:19.907Z,101038.45
2017-09-21T01:19:47.436Z,101044.13
2017-09-21T01:22:14.896Z,101043.26
2017-09-21T01:24:42.378Z,101042.94
2017-09-21T01:27:09.855Z,101046.42
2017-09-21T01:29:37.329Z,101042.86
2017-09-21T01:32:04.793Z,101044.25
2017-09-21T01:34:32.264Z,101048.17
2017-09-21T01:36:59.785Z,101053.13
2017-09-21T01:39:27.268Z,101051.00
2017-09-21T01:41:54.745Z,101047.89
2017-09-21T01:44:22.239Z,101043.91
2017-09-21T01:46:49.709Z,101037.72
2017-09-21T01:49:17.192Z,101034.61
2017-09-21T01:51:44.636Z,101042.16
2017-09-21T01:54:12.129Z,101039.91
2017-09-21T01:56:39.629Z,101043.47
2017-09-21T01:59:07.084Z,101044.80
2017-09-21T02:01:34.648Z,101040.45
2017-09-21T02:04:02.718Z,101039.12
2017-09-21T02:06:30.241Z,101037.37
2017-09-21T02:08:57.735Z,101049.71
2017-09-21T02:11:25.297Z,101048.84
2017-09-21T02:13:52.756Z,101047.10
2017-09-21T02:16:20.234Z,101043.09
2017-09-21T02:18:47.718Z,101047.97
2017-09-21T02:21:15.518Z,101045.80
2017-09-21T02:23:42.965Z,101039.17
2017-09-21T02:26:10.417Z,101034.73
2017-09-21T02:28:37.897Z,101037.82
2017-09-21T02:31:05.366Z,101033.23
2017-09-21T02:33:32.920Z,101032.97
2017-09-21T02:36:00.383Z,101032.56
2017-09-21T02:38:27.860Z,101028.66
2017-09-21T02:40:55.309Z,101022.89
2017-09-21T02:43:22.792Z,101016.69
2017-09-21T02:45:50.250Z,101015.81
2017-09-21T02:48:17.729Z,101018.88
2017-09-21T02:50:45.213Z,101019.80
2017-09-21T02:53:12.705Z,101018.92
2017-09-21T02:55:40.167Z,101017.58
2017-09-21T02:58:07.645Z,101012.73
2017-09-21T03:00:35.108Z,101023.75
2017-09-21T03:03:02.781Z,101027.27
2017-09-21T03:05:30.269Z,101027.73
2017-09-21T03:07:57.715Z,101033.48
2017-09-21T03:10:25.193Z,101026.03
2017-09-21T03:12:52.745Z,101027.73
2017-09-21T03:15:20.215Z,101026.89
2017-09-21T03:17:47.671Z,101022.50
2017-09-21T03:20:15.196Z,101019.86
2017-09-21T03:22:42.649Z,101026.02
2017-09-21T03:25:10.113Z,101029.97
2017-09-21T03:27:37.570Z,101028.67
2017-09-21T03:30:05.042Z,101028.67
2017-09-21T03:32:32.484Z,101035.28
2017-09-21T03:34:59.960Z,101036.58
2017-09-21T03:37:27.403Z,101035.27
2017-09-21T03:39:54.898Z,101035.66
2017-09-21T03:42:22.357Z,101033.52
2017-09-21T03:44:49.875Z,101038.37
2017-09-21T03:47:17.424Z,101033.51
2017-09-21T03:49:45.128Z,101023.84
2017-09-21T03:52:12.595Z,101032.64
2017-09-21T03:54:40.084Z,101023.82
2017-09-21T03:57:07.565Z,101025.16
2017-09-21T03:59:35.029Z,101031.31
2017-09-21T04:02:02.537Z,101026.47
2017-09-21T04:04:29.997Z,101023.39
2017-09-21T04:06:57.485Z,101029.55
2017-09-21T04:09:24.945Z,101030.42
2017-09-21T04:11:52.427Z,101028.67
2017-09-21T04:14:19.880Z,101025.16
2017-09-21T04:16:47.385Z,101026.92
2017-09-21T04:19:14.857Z,101029.58
2017-09-21T04:21:42.342Z,101029.55
2017-09-21T04:24:09.827Z,101036.58
2017-09-21T04:26:37.315Z,101039.22
2017-09-21T04:29:04.780Z,101037.02
2017-09-21T04:31:32.252Z,101046.73
2017-09-21T04:33:59.721Z,101049.38
2017-09-21T04:36:28.183Z,101043.63
2017-09-21T04:38:55.649Z,101047.61
2017-09-21T04:41:23.137Z,101052.88
2017-09-21T04:43:50.608Z,101047.12
2017-09-21T04:46:18.125Z,101058.61
2017-09-21T04:48:45.662Z,101060.34
2017-09-21T04:51:13.127Z,101059.02
2017-09-21T04:53:40.709Z,101056.40
2017-09-21T04:56:08.187Z,101059.03
2017-09-21T04:58:35.772Z,101061.23
2017-09-21T05:01:03.245Z,101063.45
2017-09-21T05:03:30.725Z,101065.65
2017-09-21T05:05:58.198Z,101062.94
2017-09-21T05:08:25.737Z,101057.69
2017-09-21T05:10:53.301Z,101058.55
2017-09-21T05:13:20.792Z,101058.98
2017-09-21T05:15:48.248Z,101058.12
2017-09-21T05:18:15.749Z,101062.48
2017-09-21T05:20:43.213Z,101051.48
2017-09-21T05:23:11.828Z,101047.49
2017-09-21T05:25:41.511Z,101052.77
2017-09-21T05:28:11.546Z,101055.86
2017-09-21T05:30:39.001Z,101054.09
2017-09-21T05:33:06.508Z,101055.84
2017-09-21T05:35:34.390Z,101059.38
2017-09-21T05:38:01.912Z,101062.04
2017-09-21T05:40:29.409Z,101058.89
2017-09-21T05:42:56.873Z,101062.41
2017-09-21T05:45:24.361Z,101061.96
2017-09-21T05:47:51.905Z,101061.13
2017-09-21T05:50:19.392Z,101065.56
2017-09-21T05:52:46.852Z,101065.12
2017-09-21T05:55:14.389Z,101069.98
2017-09-21T05:57:41.843Z,101066.45
2017-09-21T06:00:09.326Z,101058.95
2017-09-21T06:02:36.811Z,101058.00
2017-09-21T06:05:04.305Z,101070.80
2017-09-21T06:07:31.758Z,101066.39
2017-09-21T06:09:59.245Z,101068.98
2017-09-21T06:12:26.728Z,101063.68
2017-09-21T06:14:54.233Z,101062.09
2017-09-21T06:17:21.692Z,101066.05
2017-09-21T06:19:49.150Z,101067.87
2017-09-21T06:22:16.705Z,101063.41
2017-09-21T06:24:44.165Z,101071.33
2017-09-21T06:27:11.667Z,101072.16
2017-09-21T06:29:39.125Z,101071.31
2017-09-21T06:32:06.609Z,101067.62
2017-09-21T06:34:34.121Z,101074.00
2017-09-21T06:37:01.621Z,101071.85
2017-09-21T06:39:29.091Z,101070.51
2017-09-21T06:41:56.581Z,101065.86
2017-09-21T06:44:24.044Z,101076.66
2017-09-21T06:46:51.740Z,101073.64
2017-09-21T06:49:19.258Z,101076.12
2017-09-21T06:51:46.744Z,101083.34
2017-09-21T06:54:14.221Z,101086.44
2017-09-21T06:56:41.706Z,101075.51
2017-09-21T06:59:09.180Z,101075.50
2017-09-21T07:01:36.651Z,101076.48
2017-09-21T07:04:04.133Z,101072.80
2017-09-21T07:06:31.632Z,101073.90
2017-09-21T07:08:59.104Z,101074.64
2017-09-21T07:11:26.657Z,101071.23
2017-09-21T07:13:54.153Z,101068.33
2017-09-21T07:16:21.672Z,101066.41
2017-09-21T07:18:49.145Z,101068.47
2017-09-21T07:21:16.626Z,101074.91
2017-09-21T07:23:44.093Z,101071.92
2017-09-21T07:26:11.589Z,101073.91
2017-09-21T07:28:39.039Z,101075.34
2017-09-21T07:31:06.620Z,101086.16
2017-09-21T07:33:34.078Z,101086.06
2017-09-21T07:36:01.632Z,101085.85
2017-09-21T07:38:29.096Z,101083.95
2017-09-21T07:40:56.598Z,101078.94
2017-09-21T07:43:24.053Z,101082.39
2017-09-21T07:45:51.536Z,101088.97
2017-09-21T07:48:19.002Z,101085.97
2017-09-21T07:50:46.485Z,101095.79
2017-09-21T07:53:13.950Z,101093.21
2017-09-21T07:55:41.449Z,101093.84
2017-09-21T07:58:09.313Z,101088.22
2017-09-21T08:00:36.773Z,101088.82
2017-09-21T08:03:04.273Z,101087.80
2017-09-21T08:05:31.733Z,101086.61
2017-09-21T08:07:59.212Z,101093.11
2017-09-21T08:10:26.672Z,101095.89
2017-09-21T08:12:54.147Z,101096.90
2017-09-21T08:15:21.609Z,101083.65
2017-09-21T08:17:49.079Z,101093.10
2017-09-21T08:20:16.597Z,101096.06
2017-09-21T08:22:44.551Z,101095.91
2017-09-21T08:25:12.095Z,101093.66
2017-09-21T08:27:39.837Z,101084.73
2017-09-21T08:30:07.353Z,101092.42
2017-09-21T08:32:34.864Z,101090.67
2017-09-21T08:35:02.579Z,101091.08
2017-09-21T08:37:30.192Z,101094.64
2017-09-21T08:39:57.765Z,101087.89
2017-09-21T08:42:25.305Z,101090.80
2017-09-21T08:44:53.122Z,101084.91
2017-09-21T08:47:20.987Z,101092.30
2017-09-21T08:49:48.957Z,101087.28
2017-09-21T08:52:16.619Z,101087.39
2017-09-21T08:54:44.603Z,101090.89
2017-09-21T08:57:12.555Z,101086.40
2017-09-21T08:59:40.522Z,101093.27
2017-09-21T09:02:08.494Z,101086.52
2017-09-21T09:04:36.479Z,101086.91
2017-09-21T09:07:04.427Z,101092.01
2017-09-21T09:09:32.398Z,101087.16
2017-09-21T09:12:00.572Z,101085.41
2017-09-21T09:14:28.334Z,101077.58
2017-09-21T09:16:56.352Z,101075.27
2017-09-21T09:19:23.861Z,101081.22
2017-09-21T09:21:51.841Z,101072.59
2017-09-21T09:24:20.034Z,101069.59
2017-09-21T09:26:48.149Z,101065.97
2017-09-21T09:29:15.940Z,101066.73
2017-09-21T09:31:43.768Z,101064.36
2017-09-21T09:34:11.673Z,101065.92
2017-09-21T09:36:39.800Z,101060.67
2017-09-21T09:39:07.814Z,101065.80
2017-09-21T09:41:35.782Z,101061.59
2017-09-21T09:44:03.621Z,101059.48
2017-09-21T09:46:31.559Z,101054.84
2017-09-21T09:48:59.484Z,101053.09
2017-09-21T09:51:27.665Z,101051.22
2017-09-21T09:53:55.255Z,101046.44
2017-09-21T09:56:23.059Z,101039.67
2017-09-21T09:58:51.664Z,101040.16
2017-09-21T10:01:19.592Z,101039.14
2017-09-21T10:03:47.533Z,101034.22
2017-09-21T10:06:15.371Z,101027.55
2017-09-21T10:08:42.900Z,101027.13
2017-09-21T10:11:10.389Z,101024.19
2017-09-21T10:13:37.900Z,101024.47
2017-09-21T10:16:05.374Z,101019.05
2017-09-21T10:18:32.908Z,101017.81
2017-09-21T10:21:00.381Z,101018.66
2017-09-21T10:23:27.856Z,101015.19
2017-09-21T10:25:55.324Z,101014.82
2017-09-21T10:28:22.850Z,101006.42
2017-09-21T10:30:50.337Z,101003.86
2017-09-21T10:33:17.822Z,100995.94
2017-09-21T10:35:45.293Z,101004.03
2017-09-21T10:38:12.794Z,100995.45
2017-09-21T10:40:40.260Z,100999.23
2017-09-21T10:43:07.725Z,100990.67
2017-09-21T10:45:35.217Z,100993.63
2017-09-21T10:48:02.699Z,100987.38
2017-09-21T10:50:30.195Z,100994.17
2017-09-21T10:52:57.704Z,100986.98
2017-09-21T10:55:25.272Z,100986.20
2017-09-21T10:57:52.752Z,100985.66
2017-09-21T11:00:20.240Z,100979.08
2017-09-21T11:02:47.721Z,100978.09
2017-09-21T11:05:15.305Z,100979.72
2017-09-21T11:07:42.780Z,100979.78
2017-09-21T11:10:10.306Z,100969.33
2017-09-21T11:12:37.769Z,100972.72
2017-09-21T11:15:05.237Z,100971.24
2017-09-21T11:17:32.831Z,100969.25
2017-09-21T11:20:00.341Z,100962.22
2017-09-21T11:22:27.824Z,100964.40
2017-09-21T11:24:55.311Z,100958.14
2017-09-21T11:27:22.805Z,100953.17
2017-09-21T11:29:50.281Z,100949.36
2017-09-21T11:32:17.775Z,100952.81
2017-09-21T11:34:45.288Z,100942.86
2017-09-21T11:37:12.801Z,100938.66
2017-09-21T11:39:40.264Z,100942.95
2017-09-21T11:42:07.749Z,100942.44
2017-09-21T11:44:35.230Z,100946.56
2017-09-21T11:47:02.768Z,100943.71
2017-09-21T11:49:30.241Z,100935.58
2017-09-21T11:51:57.769Z,100932.99
2017-09-21T11:54:25.297Z,100923.42
2017-09-21T11:56:52.764Z,100923.48
2017-09-21T11:59:20.245Z,100923.72
2017-09-21T12:01:47.701Z,100924.92
2017-09-21T12:04:15.193Z,100920.48
2017-09-21T12:06:42.671Z,100913.44
2017-09-21T12:09:10.148Z,100908.31
2017-09-21T12:11:37.750Z,100916.25
2017-09-21T12:14:05.312Z,100906.91
2017-09-21T12:16:32.777Z,100912.66
2017-09-21T12:19:00.268Z,100902.45
2017-09-21T12:21:27.729Z,100900.04
2017-09-21T12:23:55.236Z,100900.55
2017-09-21T12:26:22.695Z,100902.94
2017-09-21T12:28:50.197Z,100901.89
2017-09-21T12:31:17.657Z,100905.48
2017-09-21T12:33:45.120Z,100895.52
2017-09-21T12:36:12.670Z,100898.20
2017-09-21T12:38:40.840Z,100899.04
2017-09-21T12:41:09.852Z,100894.23
2017-09-21T12:43:37.598Z,100878.35
2017-09-21T12:46:05.566Z,100882.87
2017-09-21T12:48:33.492Z,100883.41
2017-09-21T12:51:01.463Z,100886.88
2017-09-21T12:53:29.354Z,100881.77
2017-09-21T12:55:57.396Z,100872.77
2017-09-21T12:58:25.204Z,100872.97
2017-09-21T13:00:53.070Z,100873.56
2017-09-21T13:03:21.038Z,100871.47
2017-09-21T13:05:48.689Z,100860.48
2017-09-21T13:08:16.769Z,100867.45
2017-09-21T13:10:44.636Z,100862.80
2017-09-21T13:13:13.042Z,100859.80
2017-09-21T13:15:40.881Z,100851.27
2017-09-21T13:18:08.747Z,100855.77
2017-09-21T13:20:36.406Z,100858.10
2017-09-21T13:23:03.917Z,100853.89
2017-09-21T13:25:31.828Z,100848.74
2017-09-21T13:27:59.667Z,100843.39
2017-09-21T13:30:27.512Z,100842.94
2017-09-21T13:32:55.328Z,100843.06
2017-09-21T13:35:22.990Z,100836.27
2017-09-21T13:37:51.060Z,100840.97
2017-09-21T13:40:19.029Z,100837.32
2017-09-21T13:42:46.868Z,100839.48
2017-09-21T13:45:14.765Z,100831.41
2017-09-21T13:47:42.319Z,100839.20
2017-09-21T13:50:10.293Z,100834.47
2017-09-21T13:52:38.137Z,100825.57
2017-09-21T13:55:05.903Z,100826.34
2017-09-21T13:57:33.580Z,100829.70
2017-09-21T14:00:01.445Z,100826.45
2017-09-21T14:02:29.299Z,100818.88
2017-09-21T14:04:56.819Z,100825.39
2017-09-21T14:07:24.288Z,100822.67
2017-09-21T14:09:52.705Z,100817.36
2017-09-21T14:12:20.173Z,100812.20
2017-09-21T14:14:47.662Z,100807.18
2017-09-21T14:17:15.123Z,100813.14
2017-09-21T14:19:43.353Z,100808.03
2017-09-21T14:22:11.703Z,100809.08
2017-09-21T14:24:39.695Z,100809.47
2017-09-21T14:27:07.871Z,100802.57
2017-09-21T14:29:36.043Z,100802.66
2017-09-21T14:32:04.360Z,100799.80
2017-09-21T14:34:32.081Z,100798.68
2017-09-21T14:37:00.358Z,100797.80
2017-09-21T14:39:28.861Z,100801.69
2017-09-21T14:41:56.989Z,100797.70
2017-09-21T14:44:25.537Z,100795.04
2017-09-21T14:46:53.900Z,100793.09
2017-09-21T14:49:22.258Z,100789.84
2017-09-21T14:51:50.522Z,100783.75
2017-09-21T14:54:18.906Z,100791.52
2017-09-21T14:56:46.787Z,100791.66
2017-09-21T14:59:14.995Z,100785.41
2017-09-21T15:01:43.226Z,100777.34
2017-09-21T15:04:11.389Z,100786.59
2017-09-21T15:06:39.001Z,100778.28
2017-09-21T15:09:07.675Z,100777.45
2017-09-21T15:11:35.256Z,100770.39
2017-09-21T15:14:02.745Z,100780.46
2017-09-21T15:16:30.208Z,100775.82
2017-09-21T15:18:57.709Z,100775.91
2017-09-21T15:21:25.177Z,100774.04
2017-09-21T15:23:52.665Z,100784.50
2017-09-21T15:26:20.208Z,100778.24
2017-09-21T15:28:47.689Z,100768.34
2017-09-21T15:31:15.182Z,100771.11
2017-09-21T15:33:43.084Z,100769.59
2017-09-21T15:36:10.560Z,100772.39
2017-09-21T15:38:38.052Z,100768.59
2017-09-21T15:41:05.515Z,100766.83
2017-09-21T15:43:33.032Z,100766.75
2017-09-21T15:46:00.513Z,100765.35
2017-09-21T15:48:28.007Z,100760.80
2017-09-21T15:50:55.501Z,100774.16
2017-09-21T15:53:23.064Z,100768.00
2017-09-21T15:55:50.601Z,100760.75
2017-09-21T15:58:18.083Z,100772.25
2017-09-21T16:00:45.572Z,100769.04
2017-09-21T16:03:13.049Z,100770.29
2017-09-21T16:05:40.550Z,100762.78
2017-09-21T16:08:08.037Z,100770.64
2017-09-21T16:10:35.969Z,100766.78
2017-09-21T16:13:03.474Z,100767.78
2017-09-21T16:15:30.974Z,100768.31
2017-09-21T16:17:58.469Z,100764.52
2017-09-21T16:20:25.980Z,100769.02
2017-09-21T16:22:53.465Z,100767.61
2017-09-21T16:25:20.960Z,100768.02
2017-09-21T16:27:48.457Z,100772.55
2017-09-21T16:30:15.929Z,100770.22
2017-09-21T16:32:43.490Z,100768.92
2017-09-21T16:35:11.028Z,100769.28
2017-09-21T16:37:38.504Z,100769.77
2017-09-21T16:40:06.037Z,100774.84
2017-09-21T16:42:33.600Z,100771.62
2017-09-21T16:45:01.112Z,100771.46
2017-09-21T16:47:28.593Z,100771.39
2017-09-21T16:49:57.042Z,100769.17
2017-09-21T16:52:24.520Z,100764.80
2017-09-21T16:54:51.986Z,100765.97
2017-09-21T16:57:19.511Z,100766.58
2017-09-21T16:59:46.987Z,100771.59
2017-09-21T17:02:14.460Z,100769.68
2017-09-21T17:04:41.934Z,100768.05
2017-09-21T17:07:09.424Z,100768.00
2017-09-21T17:09:36.889Z,100767.31
2017-09-21T17:12:04.361Z,100766.78
2017-09-21T17:14:31.842Z,100760.78
2017-09-21T17:16:59.323Z,100768.42
2017-09-21T17:19:26.878Z,100770.98
2017-09-21T17:21:54.373Z,100773.49
2017-09-21T17:24:21.834Z,100772.08
2017-09-21T17:26:49.317Z,100774.97
2017-09-21T17:29:16.783Z,100781.75
2017-09-21T17:31:44.278Z,100772.45
2017-09-21T17:34:11.833Z,100780.13
2017-09-21T17:36:39.325Z,100784.80
2017-09-21T17:39:06.778Z,100782.52
2017-09-21T17:41:34.270Z,100783.27
2017-09-21T17:44:01.729Z,100782.95
2017-09-21T17:46:34.993Z,100785.48
2017-09-21T17:49:02.453Z,100785.95
2017-09-21T17:51:29.961Z,100788.48
2017-09-21T17:53:57.450Z,100788.34
2017-09-21T17:56:25.017Z,100789.58
2017-09-21T17:58:52.517Z,100800.77
2017-09-21T18:01:19.974Z,100799.79
2017-09-21T18:03:47.469Z,100804.67
2017-09-21T18:06:14.995Z,100802.23
2017-09-21T18:08:42.474Z,100800.37
2017-09-21T18:11:10.024Z,100801.16
2017-09-21T18:13:37.496Z,100805.55
2017-09-21T18:16:04.952Z,100811.92
2017-09-21T18:18:32.493Z,100810.54
2017-09-21T18:20:59.952Z,100809.75
2017-09-21T18:23:27.436Z,100812.38
2017-09-21T18:25:54.923Z,100810.95
2017-09-21T18:28:22.418Z,100816.68
2017-09-21T18:30:49.880Z,100820.78
2017-09-21T18:33:17.385Z,100821.23
2017-09-21T18:35:44.844Z,100823.23
2017-09-21T18:38:12.337Z,100820.67
2017-09-21T18:40:39.814Z,100826.04
2017-09-21T18:43:07.292Z,100829.17
2017-09-21T18:45:34.779Z,100821.05
2017-09-21T18:48:02.300Z,100828.98
2017-09-21T18:50:29.769Z,100826.39
2017-09-21T18:52:57.256Z,100832.11
2017-09-21T18:55:24.709Z,100836.16
2017-09-21T18:57:52.245Z,100833.11
2017-09-21T19:00:19.752Z,100827.77
2017-09-21T19:02:47.233Z,100832.73
2017-09-21T19:05:14.713Z,100832.54
2017-09-21T19:07:42.175Z,100837.01
2017-09-21T19:10:09.668Z,100841.38
2017-09-21T19:12:37.159Z,100838.92
2017-09-21T19:15:04.640Z,100834.63
2017-09-21T19:17:32.102Z,100832.69
2017-09-21T19:20:00.357Z,100833.89
2017-09-21T19:22:27.888Z,100839.11
2017-09-21T19:24:55.373Z,100837.23
2017-09-21T19:27:22.851Z,100837.63
2017-09-21T19:29:50.340Z,100836.31
2017-09-21T19:32:17.804Z,100835.67
2017-09-21T19:34:45.287Z,100839.07
2017-09-21T19:37:12.742Z,100834.78
2017-09-21T19:39:40.233Z,100834.47
2017-09-21T19:42:07.776Z,100836.28
2017-09-21T19:44:35.295Z,100841.27
2017-09-21T19:47:02.761Z,100842.39
2017-09-21T19:49:30.322Z,100837.99
2017-09-21T19:51:57.809Z,100836.47
2017-09-21T19:54:25.341Z,100843.18
2017-09-21T19:56:52.833Z,100841.94
2017-09-21T19:59:20.290Z,100843.23
2017-09-21T20:01:47.767Z,100836.09
2017-09-21T20:04:15.221Z,100842.03
2017-09-21T20:06:42.701Z,100839.31
2017-09-21T20:09:10.187Z,100844.69
2017-09-21T20:11:37.678Z,100841.41
2017-09-21T20:14:05.173Z,100842.14
2017-09-21T20:16:32.657Z,100841.30
2017-09-21T20:19:00.209Z,100847.78
2017-09-21T20:21:27.679Z,100849.04
2017-09-21T20:23:55.176Z,100843.54
2017-09-21T20:26:22.642Z,100850.16
2017-09-21T20:28:50.132Z,100847.95
2017-09-21T20:31:17.616Z,100844.16
2017-09-21T20:33:45.096Z,100848.69
2017-09-21T20:36:12.558Z,100847.52
2017-09-21T20:38:40.045Z,100849.35
2017-09-21T20:41:07.505Z,100845.45
2017-09-21T20:43:34.996Z,100841.78
2017-09-21T20:46:02.471Z,100843.25
2017-09-21T20:48:29.967Z,100852.07
2017-09-21T20:50:57.430Z,100852.41
2017-09-21T20:53:25.013Z,100850.63
2017-09-21T20:55:52.485Z,100843.56
2017-09-21T20:58:19.949Z,100842.88
2017-09-21T21:00:47.486Z,100840.03
2017-09-21T21:03:14.940Z,100841.39
2017-09-21T21:05:42.429Z,100841.27
2017-09-21T21:08:09.917Z,100843.95
2017-09-21T21:10:37.403Z,100838.49
2017-09-21T21:13:04.969Z,100836.33
2017-09-21T21:15:32.452Z,100845.40
2017-09-21T21:17:59.917Z,100842.75
2017-09-21T21:20:27.405Z,100836.02
2017-09-21T21:22:54.873Z,100839.61
2017-09-21T21:25:22.415Z,100836.90
2017-09-21T21:27:49.905Z,100842.22
2017-09-21T21:30:17.432Z,100843.22
2017-09-21T21:32:44.897Z,100847.13
2017-09-21T21:35:12.394Z,100844.03
2017-09-21T21:37:39.869Z,100852.02
2017-09-21T21:40:07.341Z,100852.31
2017-09-21T21:42:34.844Z,100853.44
2017-09-21T21:45:02.296Z,100852.98
2017-09-21T21:47:29.795Z,100854.27
2017-09-21T21:49:57.275Z,100857.71
2017-09-21T21:52:24.749Z,100862.17
2017-09-21T21:54:52.232Z,100856.80
2017-09-21T21:57:19.709Z,100864.66
2017-09-21T21:59:47.185Z,100861.95
2017-09-21T22:02:14.665Z,100860.81
2017-09-21T22:04:42.160Z,100861.53
2017-09-21T22:07:09.636Z,100859.06
2017-09-21T22:09:37.113Z,100863.31
2017-09-21T22:12:04.574Z,100854.24
2017-09-21T22:14:32.049Z,100854.05
2017-09-21T22:16:59.524Z,100862.20
2017-09-21T22:19:27.032Z,100857.42
2017-09-21T22:21:54.501Z,100858.56
2017-09-21T22:24:21.992Z,100857.41
2017-09-21T22:26:49.462Z,100849.05
2017-09-21T22:29:16.912Z,100853.42
2017-09-21T22:31:44.390Z,100856.78
2017-09-21T22:34:11.968Z,100855.97
2017-09-21T22:36:39.450Z,100849.61
2017-09-21T22:39:06.933Z,100856.98
2017-09-21T22:41:34.413Z,100850.46
2017-09-21T22:44:01.897Z,100854.39
2017-09-21T22:46:29.418Z,100858.44
2017-09-21T22:48:56.875Z,100857.93
2017-09-21T22:51:24.448Z,100866.77
2017-09-21T22:53:51.901Z,100857.18
2017-09-21T22:56:19.378Z,100855.41
2017-09-21T22:58:46.846Z,100855.05
2017-09-21T23:01:14.360Z,100851.53
2017-09-21T23:03:41.817Z,100852.33
2017-09-21T23:06:09.277Z,100860.75
2017-09-21T23:08:36.751Z,100860.80
2017-09-21T23:11:04.254Z,100856.00
2017-09-21T23:13:31.739Z,100859.99
2017-09-21T23:15:59.205Z,100851.39
2017-09-21T23:18:26.713Z,100860.41
2017-09-21T23:20:54.179Z,100855.91
2017-09-21T23:23:21.699Z,100856.05
2017-09-21T23:25:49.155Z,100865.25
2017-09-21T23:28:16.685Z,100856.49
2017-09-21T23:30:44.153Z,100865.30
2017-09-21T23:33:11.614Z,100862.84
2017-09-21T23:35:39.088Z,100871.70
2017-09-21T23:38:06.544Z,100872.26
2017-09-21T23:40:34.105Z,100874.36
2017-09-21T23:43:01.598Z,100868.31
2017-09-21T23:45:29.084Z,100872.79
2017-09-21T23:47:56.532Z,100873.36
2017-09-21T23:50:24.026Z,100871.88
2017-09-21T23:52:51.589Z,100863.91
2017-09-21T23:55:19.077Z,100872.73
2017-09-21T23:57:46.544Z,100873.61
